createdAt,value
2022-12-31T00:00:48.089Z,4.13
2022-12-31T00:03:15.512Z,5.65
2022-12-31T00:05:42.793Z,5.60
2022-12-31T00:08:10.187Z,4.38
2022-12-31T00:10:41.512Z,6.32
2022-12-31T00:13:11.399Z,4.50
2022-12-31T00:15:40.265Z,5.18
2022-12-31T00:18:08.444Z,5.22
2022-12-31T00:20:38.630Z,5.65
2022-12-31T00:23:05.933Z,5.40
2022-12-31T00:25:36.041Z,3.85
2022-12-31T00:28:05.037Z,4.38
2022-12-31T00:30:32.502Z,5.22
2022-12-31T00:32:59.752Z,3.42
2022-12-31T00:35:27.211Z,3.05
2022-12-31T00:37:54.641Z,5.07
2022-12-31T00:40:21.956Z,6.47
2022-12-31T00:42:49.267Z,3.13
2022-12-31T00:45:16.667Z,3.85
2022-12-31T00:47:43.962Z,3.95
2022-12-31T00:50:11.332Z,4.85
2022-12-31T00:52:38.760Z,2.88
2022-12-31T00:55:06.669Z,3.38
2022-12-31T00:57:33.922Z,3.50
2022-12-31T01:00:01.186Z,3.65
2022-12-31T01:02:28.563Z,2.42
2022-12-31T01:04:55.950Z,3.65
2022-12-31T01:07:23.222Z,3.15
2022-12-31T01:09:50.500Z,3.33
2022-12-31T01:12:17.808Z,2.80
2022-12-31T01:14:45.104Z,4.90
2022-12-31T01:17:13.398Z,3.65
2022-12-31T01:19:40.707Z,2.70
2022-12-31T01:22:07.991Z,2.70
2022-12-31T01:24:35.272Z,3.00
2022-12-31T01:27:02.590Z,2.90
2022-12-31T01:29:29.944Z,2.38
2022-12-31T01:31:57.457Z,3.92
2022-12-31T01:34:24.769Z,2.42
2022-12-31T01:36:52.070Z,2.42
2022-12-31T01:39:19.379Z,4.07
2022-12-31T01:41:47.891Z,4.38
2022-12-31T01:44:27.110Z,3.50
2022-12-31T01:47:04.486Z,5.22
2022-12-31T01:49:50.115Z,2.33
2022-12-31T01:52:34.677Z,2.78
2022-12-31T01:55:33.239Z,3.47
2022-12-31T01:58:24.939Z,2.80
2022-12-31T02:00:53.356Z,2.25
2022-12-31T02:03:22.995Z,1.70
2022-12-31T02:05:58.720Z,2.55
2022-12-31T02:08:26.232Z,5.00
2022-12-31T02:10:53.584Z,2.83
2022-12-31T02:13:21.094Z,5.30
2022-12-31T02:16:15.095Z,2.30
2022-12-31T02:18:58.399Z,3.70
2022-12-31T02:21:34.287Z,2.90
2022-12-31T02:24:07.393Z,2.78
2022-12-31T02:26:54.077Z,2.88
2022-12-31T02:29:27.567Z,2.72
2022-12-31T02:32:14.605Z,2.30
2022-12-31T02:34:58.985Z,4.30
2022-12-31T02:37:30.538Z,3.45
2022-12-31T02:39:58.899Z,2.60
2022-12-31T02:42:26.133Z,2.67
2022-12-31T02:44:53.400Z,2.22
2022-12-31T02:47:35.026Z,1.73
2022-12-31T02:50:20.546Z,2.53
2022-12-31T02:53:06.747Z,3.60
2022-12-31T02:55:53.168Z,2.95
2022-12-31T02:58:55.712Z,2.70
2022-12-31T03:01:51.297Z,4.13
2022-12-31T03:04:35.861Z,2.78
2022-12-31T03:07:30.695Z,3.10
2022-12-31T03:09:58.430Z,3.10
2022-12-31T03:12:48.707Z,2.97
2022-12-31T03:15:23.493Z,2.83
2022-12-31T03:21:04.050Z,2.95
2022-12-31T03:23:43.780Z,4.13
2022-12-31T03:26:13.097Z,4.72
2022-12-31T03:28:47.731Z,2.63
2022-12-31T03:31:16.370Z,2.47
2022-12-31T03:33:43.840Z,3.22
2022-12-31T03:36:14.527Z,3.53
2022-12-31T03:38:42.471Z,2.88
2022-12-31T03:41:11.131Z,2.67
2022-12-31T03:43:38.635Z,3.17
2022-12-31T03:46:06.087Z,3.42
2022-12-31T03:48:33.420Z,2.30
2022-12-31T03:51:00.681Z,2.78
2022-12-31T03:53:27.966Z,3.00
2022-12-31T03:55:55.395Z,1.75
2022-12-31T03:58:22.890Z,2.83
2022-12-31T04:00:50.752Z,3.22
2022-12-31T04:03:18.500Z,1.90
2022-12-31T04:05:51.852Z,2.65
2022-12-31T04:08:19.262Z,1.52
2022-12-31T04:10:46.577Z,3.72
2022-12-31T04:13:13.829Z,2.17
2022-12-31T04:15:41.176Z,2.22
2022-12-31T04:18:08.431Z,2.13
2022-12-31T04:20:35.652Z,1.83
2022-12-31T04:23:02.953Z,3.00
2022-12-31T04:25:30.177Z,2.00
2022-12-31T04:27:57.457Z,1.42
2022-12-31T04:30:24.732Z,2.63
2022-12-31T04:32:52.004Z,1.85
2022-12-31T04:35:19.399Z,2.38
2022-12-31T04:37:46.844Z,2.42
2022-12-31T04:40:14.127Z,2.17
2022-12-31T04:42:41.369Z,1.85
2022-12-31T04:45:08.980Z,3.08
2022-12-31T04:47:36.316Z,1.50
2022-12-31T04:50:03.929Z,1.40
2022-12-31T04:52:34.537Z,2.28
2022-12-31T04:55:04.652Z,1.63
2022-12-31T04:57:31.938Z,1.90
2022-12-31T04:59:59.208Z,1.60
2022-12-31T05:02:26.658Z,2.58
2022-12-31T05:04:54.218Z,1.52
2022-12-31T05:07:21.476Z,1.80
2022-12-31T05:09:48.761Z,1.80
2022-12-31T05:12:16.041Z,3.13
2022-12-31T05:14:43.281Z,1.83
2022-12-31T05:17:10.519Z,3.80
2022-12-31T05:19:37.748Z,2.45
2022-12-31T05:22:23.281Z,1.80
2022-12-31T05:24:52.250Z,1.38
2022-12-31T05:27:19.613Z,3.03
2022-12-31T05:29:47.240Z,1.58
2022-12-31T05:32:14.599Z,1.33
2022-12-31T05:34:41.886Z,2.22
2022-12-31T05:37:09.267Z,2.08
2022-12-31T05:39:36.670Z,1.52
2022-12-31T05:42:04.002Z,1.05
2022-12-31T05:44:31.278Z,1.20
2022-12-31T05:46:58.550Z,1.55
2022-12-31T05:49:25.800Z,1.95
2022-12-31T05:51:53.035Z,1.50
2022-12-31T05:54:20.355Z,1.40
2022-12-31T05:56:47.612Z,0.95
2022-12-31T05:59:14.911Z,1.83
2022-12-31T06:01:42.220Z,2.17
2022-12-31T06:04:09.520Z,0.88
2022-12-31T06:06:36.860Z,1.77
2022-12-31T06:09:04.528Z,1.30
2022-12-31T06:11:32.097Z,1.35
2022-12-31T06:13:59.361Z,1.15
2022-12-31T06:16:27.267Z,1.23
2022-12-31T06:18:54.620Z,1.27
2022-12-31T06:21:22.341Z,1.00
2022-12-31T06:23:50.079Z,1.10
2022-12-31T06:26:17.426Z,2.17
2022-12-31T06:28:44.693Z,1.13
2022-12-31T06:31:14.209Z,1.35
2022-12-31T06:33:42.129Z,1.08
2022-12-31T06:36:13.783Z,1.15
2022-12-31T06:38:43.456Z,1.20
2022-12-31T06:41:12.654Z,0.73
2022-12-31T06:43:41.298Z,1.80
2022-12-31T06:46:11.357Z,0.80
2022-12-31T06:48:39.364Z,1.65
2022-12-31T06:51:15.008Z,1.05
2022-12-31T06:53:45.549Z,1.95
2022-12-31T06:56:34.059Z,2.90
2022-12-31T06:59:03.051Z,0.85
2022-12-31T07:01:58.111Z,1.40
2022-12-31T07:04:49.567Z,1.00
2022-12-31T07:07:42.809Z,0.63
2022-12-31T07:10:32.859Z,1.63
2022-12-31T07:13:34.985Z,0.80
2022-12-31T07:16:11.312Z,0.60
2022-12-31T07:19:01.746Z,0.73
2022-12-31T07:21:40.844Z,1.25
2022-12-31T07:24:10.315Z,3.17
2022-12-31T07:26:40.547Z,2.10
2022-12-31T07:29:40.614Z,1.75
2022-12-31T07:32:32.436Z,2.63
2022-12-31T07:35:35.425Z,1.75
2022-12-31T07:38:28.297Z,2.00
2022-12-31T07:41:12.376Z,2.13
2022-12-31T07:44:00.950Z,2.30
2022-12-31T07:46:53.141Z,1.75
2022-12-31T07:49:20.769Z,3.30
2022-12-31T07:51:48.643Z,3.40
2022-12-31T07:54:15.965Z,3.92
2022-12-31T07:56:44.220Z,4.63
2022-12-31T07:59:26.474Z,3.13
2022-12-31T08:02:06.999Z,4.68
2022-12-31T08:04:56.755Z,4.35
2022-12-31T08:07:36.848Z,4.40
2022-12-31T08:10:28.591Z,4.53
2022-12-31T08:13:04.194Z,6.45
2022-12-31T08:15:31.957Z,5.00
2022-12-31T08:17:59.456Z,7.72
2022-12-31T08:20:27.723Z,6.53
2022-12-31T08:23:15.875Z,5.43
2022-12-31T08:25:51.966Z,8.93
2022-12-31T08:28:29.778Z,7.90
2022-12-31T08:31:10.703Z,7.00
2022-12-31T08:33:52.455Z,8.57
2022-12-31T08:36:37.695Z,9.45
2022-12-31T08:39:13.216Z,8.52
2022-12-31T08:41:51.237Z,8.82
2022-12-31T08:44:24.299Z,8.15
2022-12-31T08:47:06.008Z,8.32
2022-12-31T08:49:35.383Z,7.93
2022-12-31T08:52:03.434Z,9.48
2022-12-31T08:54:31.199Z,9.55
2022-12-31T08:57:19.478Z,10.25
2022-12-31T08:59:49.759Z,9.65
2022-12-31T09:02:40.920Z,12.05
2022-12-31T09:05:32.062Z,11.27
2022-12-31T09:08:37.512Z,13.18
2022-12-31T09:11:23.194Z,11.38
2022-12-31T09:14:39.701Z,13.88
2022-12-31T09:17:32.025Z,14.02
2022-12-31T09:19:59.595Z,13.88
2022-12-31T09:22:27.292Z,13.88
2022-12-31T09:24:54.822Z,14.68
2022-12-31T09:27:30.283Z,15.20
2022-12-31T09:30:06.246Z,14.70
2022-12-31T09:32:42.728Z,15.82
2022-12-31T09:35:38.062Z,17.15
2022-12-31T09:38:52.437Z,17.10
2022-12-31T09:42:03.318Z,17.50
2022-12-31T09:45:04.044Z,18.85
2022-12-31T09:48:00.161Z,18.88
2022-12-31T09:50:27.353Z,17.90
2022-12-31T09:53:03.371Z,17.80
2022-12-31T09:56:02.160Z,20.70
2022-12-31T09:58:47.888Z,17.45
2022-12-31T10:01:37.778Z,17.95
2022-12-31T10:04:19.937Z,19.23
2022-12-31T10:07:07.883Z,21.05
2022-12-31T10:09:53.269Z,18.50
2022-12-31T10:13:01.872Z,20.58
2022-12-31T10:16:00.140Z,23.45
2022-12-31T10:18:49.165Z,23.55
2022-12-31T10:21:54.432Z,24.75
2022-12-31T10:24:53.125Z,25.67
2022-12-31T10:27:51.017Z,25.67
2022-12-31T10:30:20.960Z,27.13
2022-12-31T10:33:12.456Z,28.70
2022-12-31T10:35:54.508Z,27.33
2022-12-31T10:38:36.442Z,32.10
2022-12-31T10:41:18.747Z,29.40
2022-12-31T10:44:24.218Z,30.77
2022-12-31T10:47:12.753Z,29.92
2022-12-31T10:50:15.170Z,30.33
2022-12-31T10:53:18.274Z,30.92
2022-12-31T10:56:13.036Z,31.73
2022-12-31T10:59:17.905Z,28.92
2022-12-31T11:02:22.862Z,31.20
2022-12-31T11:05:31.636Z,31.98
2022-12-31T11:08:35.921Z,32.78
2022-12-31T11:11:31.613Z,31.35
2022-12-31T11:14:13.644Z,29.88
2022-12-31T11:17:01.188Z,31.85
2022-12-31T11:19:44.083Z,30.83
2022-12-31T11:22:36.372Z,31.65
2022-12-31T11:25:13.137Z,32.10
2022-12-31T11:27:49.692Z,35.38
2022-12-31T11:30:32.840Z,34.38
2022-12-31T11:33:08.959Z,35.38
2022-12-31T11:36:06.400Z,31.27
2022-12-31T11:38:40.709Z,32.80
2022-12-31T11:41:35.945Z,32.03
2022-12-31T11:44:15.092Z,34.47
2022-12-31T11:47:01.312Z,32.90
2022-12-31T11:49:45.156Z,31.05
2022-12-31T11:52:37.084Z,33.40
2022-12-31T11:55:16.021Z,33.42
2022-12-31T11:57:50.515Z,33.78
2022-12-31T12:00:22.037Z,30.88
2022-12-31T12:02:53.910Z,33.38
2022-12-31T12:05:23.874Z,32.35
2022-12-31T12:07:52.915Z,32.85
2022-12-31T12:10:36.009Z,33.83
2022-12-31T12:13:20.479Z,31.95
2022-12-31T12:15:52.289Z,32.22
2022-12-31T12:18:40.969Z,32.08
2022-12-31T12:21:23.714Z,33.33
2022-12-31T12:24:03.131Z,33.20
2022-12-31T12:26:37.934Z,33.53
2022-12-31T12:29:31.412Z,31.52
2022-12-31T12:32:13.718Z,31.40
2022-12-31T12:34:49.174Z,33.55
2022-12-31T12:37:33.009Z,33.42
2022-12-31T12:40:07.035Z,33.15
2022-12-31T12:42:34.383Z,33.33
2022-12-31T12:45:04.532Z,34.10
2022-12-31T12:47:32.150Z,32.58
2022-12-31T12:50:00.150Z,31.23
2022-12-31T12:52:42.804Z,32.20
2022-12-31T12:55:25.470Z,32.40
2022-12-31T12:58:18.816Z,31.92
2022-12-31T13:01:01.719Z,31.70
2022-12-31T13:07:11.983Z,30.27
2022-12-31T13:10:07.103Z,30.52
2022-12-31T13:15:58.591Z,30.13
2022-12-31T13:18:46.334Z,32.65
2022-12-31T13:21:37.983Z,28.77
2022-12-31T13:24:28.218Z,29.60
2022-12-31T13:27:12.999Z,32.42
2022-12-31T13:29:42.559Z,32.03
2022-12-31T13:32:17.071Z,30.83
2022-12-31T13:34:49.458Z,30.38
2022-12-31T13:37:33.790Z,30.70
2022-12-31T13:40:25.538Z,29.20
2022-12-31T13:43:00.519Z,29.35
2022-12-31T13:45:38.802Z,29.67
2022-12-31T13:48:13.278Z,29.75
2022-12-31T13:50:51.859Z,27.13
2022-12-31T13:53:26.687Z,27.27
2022-12-31T13:56:01.944Z,28.00
2022-12-31T13:58:49.945Z,29.65
2022-12-31T14:01:33.908Z,28.92
2022-12-31T14:04:26.047Z,28.45
2022-12-31T14:06:59.698Z,26.88
2022-12-31T14:09:30.353Z,26.40
2022-12-31T14:12:15.813Z,26.38
2022-12-31T14:15:07.089Z,24.45
2022-12-31T14:17:58.941Z,26.10
2022-12-31T14:20:37.900Z,26.27
2022-12-31T14:23:05.073Z,25.83
2022-12-31T14:25:44.966Z,26.20
2022-12-31T14:28:43.053Z,24.90
2022-12-31T14:31:27.739Z,26.63
2022-12-31T14:34:05.377Z,24.90
2022-12-31T14:37:00.009Z,26.08
2022-12-31T14:39:42.438Z,26.05
2022-12-31T14:42:24.711Z,26.88
2022-12-31T14:45:13.204Z,24.27
2022-12-31T14:48:11.760Z,26.17
2022-12-31T14:50:39.252Z,25.17
2022-12-31T14:53:08.432Z,25.75
2022-12-31T14:55:38.782Z,28.10
2022-12-31T14:58:28.839Z,26.38
2022-12-31T15:01:08.610Z,25.95
2022-12-31T15:03:44.974Z,25.08
2022-12-31T15:06:27.758Z,26.38
2022-12-31T15:09:13.581Z,25.73
2022-12-31T15:11:59.692Z,27.17
2022-12-31T15:14:45.425Z,25.95
2022-12-31T15:17:21.466Z,24.25
2022-12-31T15:20:17.480Z,25.50
2022-12-31T15:22:46.371Z,26.65
2022-12-31T15:25:41.370Z,25.90
2022-12-31T15:28:29.808Z,25.70
2022-12-31T15:31:19.341Z,26.00
2022-12-31T15:34:04.902Z,28.48
2022-12-31T15:39:05.560Z,25.83
2022-12-31T15:42:03.152Z,27.85
2022-12-31T15:44:50.073Z,25.70
2022-12-31T15:47:35.998Z,26.63
2022-12-31T15:50:15.967Z,24.38
2022-12-31T15:52:52.085Z,24.13
2022-12-31T15:55:34.039Z,24.85
2022-12-31T15:58:10.534Z,24.42
2022-12-31T16:00:55.400Z,22.88
2022-12-31T16:03:29.154Z,24.35
2022-12-31T16:06:01.794Z,25.40
2022-12-31T16:08:38.488Z,23.02
2022-12-31T16:11:08.078Z,22.52
2022-12-31T16:13:40.939Z,23.90
2022-12-31T16:16:20.932Z,23.77
2022-12-31T16:18:50.251Z,20.95
2022-12-31T16:21:29.963Z,20.30
2022-12-31T16:24:06.147Z,19.58
2022-12-31T16:26:52.140Z,21.50
2022-12-31T16:29:22.290Z,22.52
2022-12-31T16:31:53.089Z,20.83
2022-12-31T16:34:23.896Z,21.52
2022-12-31T16:37:00.043Z,20.33
2022-12-31T16:39:33.861Z,20.42
2022-12-31T16:42:28.815Z,20.70
2022-12-31T16:44:57.446Z,20.08
2022-12-31T16:47:35.421Z,20.98
2022-12-31T16:50:15.640Z,20.63
2022-12-31T16:52:48.916Z,18.95
2022-12-31T16:55:25.435Z,20.08
2022-12-31T16:58:26.515Z,19.67
2022-12-31T17:00:55.229Z,18.52
2022-12-31T17:03:25.216Z,19.27
2022-12-31T17:05:59.197Z,17.77
2022-12-31T17:08:48.774Z,18.85
2022-12-31T17:11:39.168Z,20.17
2022-12-31T17:14:06.807Z,16.98
2022-12-31T17:17:03.040Z,18.73
2022-12-31T17:19:44.955Z,20.77
2022-12-31T17:22:36.729Z,20.63
2022-12-31T17:25:08.090Z,17.50
2022-12-31T17:27:36.765Z,18.08
2022-12-31T17:30:40.090Z,18.50
2022-12-31T17:33:13.339Z,18.05
2022-12-31T17:35:43.379Z,19.50
2022-12-31T17:38:22.763Z,19.27
2022-12-31T17:40:53.508Z,18.05
2022-12-31T17:43:23.601Z,17.75
2022-12-31T17:45:55.103Z,18.70
2022-12-31T17:48:25.003Z,20.23
2022-12-31T17:51:00.713Z,20.05
2022-12-31T17:53:28.138Z,21.23
2022-12-31T17:55:57.369Z,20.85
2022-12-31T17:58:38.399Z,19.83
2022-12-31T18:01:07.953Z,20.38
2022-12-31T18:03:35.871Z,23.27
2022-12-31T18:06:05.350Z,21.23
2022-12-31T18:08:32.696Z,21.85
2022-12-31T18:11:00.174Z,22.85
2022-12-31T18:13:28.090Z,23.33
2022-12-31T18:15:55.659Z,23.00
2022-12-31T18:18:27.445Z,23.35
2022-12-31T18:21:03.557Z,24.95
2022-12-31T18:23:42.781Z,24.38
2022-12-31T18:26:18.525Z,25.23
2022-12-31T18:28:46.326Z,27.40
2022-12-31T18:31:19.104Z,24.65
2022-12-31T18:33:47.220Z,25.63
2022-12-31T18:36:16.855Z,27.92
2022-12-31T18:38:44.687Z,27.80
2022-12-31T18:41:19.595Z,28.45
2022-12-31T18:43:47.457Z,29.50
2022-12-31T18:46:16.843Z,29.58
2022-12-31T18:48:44.921Z,27.45
2022-12-31T18:51:16.143Z,29.13
2022-12-31T18:53:43.589Z,30.33
2022-12-31T18:56:16.350Z,30.80
2022-12-31T18:58:44.073Z,29.88
2022-12-31T19:01:32.930Z,30.48
2022-12-31T19:04:02.875Z,29.85
2022-12-31T19:06:30.584Z,29.42
2022-12-31T19:09:00.896Z,28.55
2022-12-31T19:11:28.644Z,28.25
2022-12-31T19:13:55.898Z,30.80
2022-12-31T19:16:23.309Z,32.13
2022-12-31T19:18:50.895Z,30.40
2022-12-31T19:21:20.733Z,29.05
2022-12-31T19:23:49.807Z,30.05
2022-12-31T19:26:20.620Z,28.30
2022-12-31T19:28:49.290Z,30.45
2022-12-31T19:31:17.419Z,29.05
2022-12-31T19:33:44.993Z,29.67
2022-12-31T19:36:20.151Z,29.33
2022-12-31T19:38:47.407Z,30.58
2022-12-31T19:41:17.344Z,29.65
2022-12-31T19:43:45.344Z,31.05
2022-12-31T19:46:15.181Z,32.45
2022-12-31T19:48:43.107Z,34.65
2022-12-31T19:51:14.722Z,31.83
2022-12-31T19:53:41.991Z,33.35
2022-12-31T19:56:14.404Z,32.28
2022-12-31T19:58:41.749Z,31.33
2022-12-31T20:01:17.160Z,30.42
2022-12-31T20:03:44.517Z,34.53
2022-12-31T20:06:11.885Z,30.55
2022-12-31T20:08:39.862Z,29.98
2022-12-31T20:11:15.871Z,33.60
2022-12-31T20:13:43.440Z,34.30
2022-12-31T20:16:13.526Z,33.25
2022-12-31T20:18:42.172Z,33.20
2022-12-31T20:21:12.132Z,33.45
2022-12-31T20:23:40.363Z,31.02
2022-12-31T20:26:07.621Z,33.28
2022-12-31T20:28:36.572Z,34.67
2022-12-31T20:31:09.360Z,32.67
2022-12-31T20:33:36.983Z,34.35
2022-12-31T20:36:06.979Z,32.15
2022-12-31T20:38:34.405Z,32.28
2022-12-31T20:41:13.516Z,32.42
2022-12-31T20:43:41.088Z,33.60
2022-12-31T20:46:14.929Z,34.63
2022-12-31T20:48:44.225Z,32.97
2022-12-31T20:51:12.635Z,30.33
2022-12-31T20:53:40.575Z,32.45
2022-12-31T20:56:08.849Z,30.02
2022-12-31T20:58:36.695Z,32.80
2022-12-31T21:01:07.991Z,34.53
2022-12-31T21:06:28.801Z,31.90
2022-12-31T21:08:57.890Z,31.75
2022-12-31T21:11:43.853Z,33.55
2022-12-31T21:14:11.263Z,34.65
2022-12-31T21:16:38.738Z,28.83
2022-12-31T21:19:06.131Z,31.35
2022-12-31T21:21:33.704Z,31.73
2022-12-31T21:24:00.962Z,30.63
2022-12-31T21:26:29.293Z,30.45
2022-12-31T21:28:56.630Z,29.27
2022-12-31T21:31:23.926Z,31.88
2022-12-31T21:33:51.297Z,31.38
2022-12-31T21:36:18.656Z,28.52
2022-12-31T21:38:45.988Z,29.50
2022-12-31T21:41:34.853Z,29.08
2022-12-31T21:44:02.885Z,29.67
2022-12-31T21:46:30.314Z,28.25
2022-12-31T21:48:59.072Z,29.27
2022-12-31T21:51:26.831Z,30.52
2022-12-31T21:53:54.250Z,27.08
2022-12-31T21:56:22.643Z,28.38
2022-12-31T21:59:13.562Z,28.73
2022-12-31T22:02:00.263Z,28.42
2022-12-31T22:05:00.982Z,25.77
2022-12-31T22:07:15.450Z,28.17
2022-12-31T22:09:42.753Z,28.05
2022-12-31T22:12:10.106Z,29.00
2022-12-31T22:14:37.471Z,26.33
2022-12-31T22:17:04.733Z,27.83
2022-12-31T22:19:33.640Z,27.88
2022-12-31T22:22:10.998Z,29.17
2022-12-31T22:24:38.264Z,23.48
2022-12-31T22:27:28.201Z,25.75
2022-12-31T22:29:53.259Z,25.80
2022-12-31T22:32:20.472Z,24.27
2022-12-31T22:34:47.690Z,26.98
2022-12-31T22:37:54.292Z,25.13
2022-12-31T22:40:02.249Z,24.33
2022-12-31T22:42:29.561Z,25.38
2022-12-31T22:44:56.829Z,25.13
2022-12-31T22:47:24.043Z,26.35
2022-12-31T22:49:51.379Z,24.83
2022-12-31T22:52:18.637Z,24.92
2022-12-31T22:54:45.904Z,24.13
2022-12-31T22:57:19.677Z,23.85
2022-12-31T22:59:47.518Z,24.77
2022-12-31T23:02:16.379Z,25.98
2022-12-31T23:04:43.665Z,25.60
2022-12-31T23:07:11.020Z,27.73
2022-12-31T23:09:56.984Z,32.85
2022-12-31T23:12:24.483Z,33.95
2022-12-31T23:15:10.147Z,35.13
2022-12-31T23:17:56.089Z,39.78
2022-12-31T23:20:44.320Z,39.00
2022-12-31T23:23:15.916Z,35.00
2022-12-31T23:25:44.369Z,37.95
2022-12-31T23:28:23.828Z,34.85
2022-12-31T23:30:52.257Z,33.95
2022-12-31T23:33:22.364Z,33.15
2022-12-31T23:35:49.880Z,30.80
2022-12-31T23:38:18.136Z,36.00
2022-12-31T23:40:45.642Z,32.35
2022-12-31T23:43:21.755Z,36.15
2022-12-31T23:45:52.655Z,34.90
2022-12-31T23:48:20.089Z,34.92
2022-12-31T23:50:53.413Z,34.05
2022-12-31T23:53:22.712Z,35.92
2022-12-31T23:55:50.293Z,35.63
2022-12-31T23:58:17.569Z,37.47
